Time;durP1;ratioP1;P1;durP2;ratioP2;P2;SDS_P1;SDS_P2;PMS_P1;PMS_P2;Temp;Humidity;BMP_temperature;BMP_pressure;BME280_temperature;BME280_humidity;BME280_pressure;Samples;Min_cycle;Max_cycle;Signal;HPM_P1;HPM_P2
2022/08/04 00:00:00;;;;;;;4.17;3.77;;;;;;;;;;5068783;28;20191;-80
2022/08/04 00:02:38;;;;;;;4.10;3.40;;;;;;;;;;5069066;28;20551;-77
2022/08/04 00:05:05;;;;;;;3.80;3.27;;;;;;;;;;5072174;28;20231;-77
2022/08/04 00:07:50;;;;;;;3.30;3.00;;;;;;;;;;5071589;28;20165;-77
2022/08/04 00:10:19;;;;;;;3.37;3.07;;;;;;;;;;5069070;28;20184;-75
2022/08/04 00:12:47;;;;;;;3.63;2.97;;;;;;;;;;5069040;28;20191;-75
2022/08/04 00:15:14;;;;;;;3.73;2.80;;;;;;;;;;5070426;28;20308;-76
2022/08/04 00:17:44;;;;;;;3.50;2.87;;;;;;;;;;5067252;28;20181;-75
2022/08/04 00:20:12;;;;;;;3.10;2.90;;;;;;;;;;5072408;28;20606;-75
2022/08/04 00:22:39;;;;;;;3.53;2.60;;;;;;;;;;5066529;28;20213;-75
2022/08/04 00:25:05;;;;;;;3.67;2.50;;;;;;;;;;5070112;28;20221;-75
2022/08/04 00:27:32;;;;;;;3.17;2.40;;;;;;;;;;5069608;28;20177;-77
2022/08/04 00:29:59;;;;;;;2.77;2.57;;;;;;;;;;5065695;28;20665;-76
2022/08/04 00:32:26;;;;;;;2.93;2.73;;;;;;;;;;5069970;28;20526;-75
2022/08/04 00:34:52;;;;;;;3.43;2.50;;;;;;;;;;5068418;28;20201;-76
2022/08/04 00:37:21;;;;;;;6.40;2.30;;;;;;;;;;5068780;28;20473;-75
2022/08/04 00:39:48;;;;;;;2.93;2.50;;;;;;;;;;5070609;28;20212;-75
2022/08/04 00:42:20;;;;;;;3.00;2.70;;;;;;;;;;5065933;28;20184;-76
2022/08/04 00:44:49;;;;;;;3.00;2.80;;;;;;;;;;5048329;28;20288;-76
2022/08/04 00:47:25;;;;;;;2.97;2.50;;;;;;;;;;5066042;28;20181;-76
2022/08/04 00:50:06;;;;;;;2.90;2.60;;;;;;;;;;5070532;28;20188;-75
2022/08/04 00:52:41;;;;;;;2.80;2.60;;;;;;;;;;5066071;28;20596;-76
2022/08/04 00:55:26;;;;;;;2.50;2.30;;;;;;;;;;5066912;28;20200;-75
2022/08/04 00:58:05;;;;;;;2.40;2.30;;;;;;;;;;5069993;28;20181;-76
2022/08/04 01:00:35;;;;;;;2.50;2.40;;;;;;;;;;5065583;28;20190;-75
2022/08/04 01:03:16;;;;;;;2.93;2.47;;;;;;;;;;5060098;28;20214;-75
2022/08/04 01:05:52;;;;;;;3.87;2.47;;;;;;;;;;5059684;28;20407;-76
2022/08/04 01:08:37;;;;;;;2.80;2.60;;;;;;;;;;5073826;28;20292;-76
2022/08/04 01:11:08;;;;;;;2.80;2.60;;;;;;;;;;5057413;28;20240;-76
2022/08/04 01:13:43;;;;;;;3.17;2.87;;;;;;;;;;5067677;28;20181;-76
2022/08/04 01:16:10;;;;;;;3.40;2.87;;;;;;;;;;5069165;28;20228;-75
2022/08/04 01:18:54;;;;;;;3.13;2.73;;;;;;;;;;5068317;28;20190;-76
2022/08/04 01:21:30;;;;;;;2.77;2.57;;;;;;;;;;5068287;28;20226;-76
2022/08/04 01:23:56;;;;;;;3.80;2.50;;;;;;;;;;5066997;28;20597;-76
2022/08/04 01:26:35;;;;;;;2.77;2.57;;;;;;;;;;5063802;28;20212;-75
2022/08/04 01:29:04;;;;;;;3.27;2.97;;;;;;;;;;5062446;28;20791;-76
2022/08/04 01:31:49;;;;;;;2.73;2.50;;;;;;;;;;5067160;28;20177;-76
2022/08/04 01:34:16;;;;;;;2.83;2.60;;;;;;;;;;5060559;28;20236;-76
2022/08/04 01:36:46;;;;;;;2.80;2.60;;;;;;;;;;5067922;28;20200;-75
2022/08/04 01:42:00;;;;;;;2.90;2.70;;;;;;;;;;5056958;28;20540;-76
2022/08/04 01:44:30;;;;;;;3.70;3.00;;;;;;;;;;5068665;28;20220;-76
2022/08/04 01:47:00;;;;;;;3.20;2.90;;;;;;;;;;5065729;28;20262;-75
2022/08/04 01:49:28;;;;;;;3.80;2.90;;;;;;;;;;5067850;28;20176;-75
2022/08/04 01:51:55;;;;;;;2.70;2.50;;;;;;;;;;5063620;28;20206;-76
2022/08/04 01:54:22;;;;;;;4.63;3.00;;;;;;;;;;5065745;28;20214;-76
2022/08/04 01:56:52;;;;;;;3.43;2.87;;;;;;;;;;5069285;28;20881;-76
2022/08/04 01:59:20;;;;;;;3.63;2.80;;;;;;;;;;5058370;28;20189;-76
2022/08/04 02:01:46;;;;;;;3.33;3.03;;;;;;;;;;5059835;28;20189;-76
2022/08/04 02:04:13;;;;;;;3.43;2.93;;;;;;;;;;5065000;28;20217;-76
2022/08/04 02:07:01;;;;;;;3.30;3.00;;;;;;;;;;5063169;28;20243;-76
2022/08/04 02:09:27;;;;;;;3.17;2.97;;;;;;;;;;5061411;28;20173;-76
2022/08/04 02:12:13;;;;;;;3.33;3.03;;;;;;;;;;5056287;28;20761;-76
2022/08/04 02:14:44;;;;;;;4.50;3.57;;;;;;;;;;5058921;28;20221;-76
2022/08/04 02:17:31;;;;;;;3.33;2.90;;;;;;;;;;5061150;28;20186;-76
2022/08/04 02:20:04;;;;;;;2.90;2.70;;;;;;;;;;5066532;28;20203;-76
2022/08/04 02:22:32;;;;;;;3.20;2.90;;;;;;;;;;5069521;28;20212;-76
2022/08/04 02:25:06;;;;;;;7.23;3.13;;;;;;;;;;5062073;28;20202;-76
2022/08/04 02:27:40;;;;;;;4.80;3.30;;;;;;;;;;5061496;28;20517;-76
2022/08/04 02:30:06;;;;;;;3.67;3.37;;;;;;;;;;5068499;28;20184;-76
2022/08/04 02:32:38;;;;;;;3.63;3.13;;;;;;;;;;5067769;28;22421;-76
2022/08/04 02:35:26;;;;;;;3.10;2.80;;;;;;;;;;5074057;28;20690;-76
2022/08/04 02:38:00;;;;;;;3.77;3.20;;;;;;;;;;5087983;28;20204;-75
2022/08/04 02:40:30;;;;;;;3.20;2.90;;;;;;;;;;5064646;28;20295;-75
2022/08/04 02:42:57;;;;;;;3.50;3.20;;;;;;;;;;5070508;28;20209;-75
2022/08/04 02:45:25;;;;;;;3.17;2.97;;;;;;;;;;5069552;28;20193;-75
2022/08/04 02:47:53;;;;;;;3.37;3.07;;;;;;;;;;5067780;28;20186;-75
2022/08/04 02:50:20;;;;;;;3.53;2.70;;;;;;;;;;5060220;28;20654;-76
2022/08/04 02:52:48;;;;;;;3.07;2.73;;;;;;;;;;5062941;28;20736;-76
2022/08/04 02:55:16;;;;;;;3.33;3.03;;;;;;;;;;5064881;28;20207;-76
2022/08/04 02:57:44;;;;;;;3.80;3.13;;;;;;;;;;5065008;28;20296;-76
2022/08/04 03:00:14;;;;;;;3.80;3.37;;;;;;;;;;5064911;28;20654;-75
2022/08/04 03:02:52;;;;;;;4.30;3.23;;;;;;;;;;5063133;28;20267;-76
2022/08/04 03:05:21;;;;;;;3.20;3.00;;;;;;;;;;5074451;28;20226;-76
2022/08/04 03:07:47;;;;;;;5.30;2.97;;;;;;;;;;5064418;28;20208;-76
2022/08/04 03:10:21;;;;;;;3.63;3.23;;;;;;;;;;5062995;28;20562;-76
2022/08/04 03:12:53;;;;;;;5.30;3.33;;;;;;;;;;5068764;28;20188;-76
2022/08/04 03:15:29;;;;;;;3.00;2.80;;;;;;;;;;5064523;28;20235;-76
2022/08/04 03:18:13;;;;;;;3.00;2.80;;;;;;;;;;5068816;28;20181;-75
2022/08/04 03:20:57;;;;;;;4.00;3.07;;;;;;;;;;5070726;28;20271;-76
2022/08/04 03:23:42;;;;;;;3.53;3.13;;;;;;;;;;5060528;28;20696;-76
2022/08/04 03:26:18;;;;;;;3.40;3.10;;;;;;;;;;5057738;28;20629;-76
2022/08/04 03:28:47;;;;;;;6.03;3.40;;;;;;;;;;5069735;28;20189;-75
2022/08/04 03:31:30;;;;;;;4.40;3.40;;;;;;;;;;5067829;28;20273;-76
2022/08/04 03:34:04;;;;;;;4.97;3.40;;;;;;;;;;5064453;28;20200;-76
2022/08/04 03:36:40;;;;;;;3.93;3.23;;;;;;;;;;5070230;28;20185;-75
2022/08/04 03:39:24;;;;;;;5.37;3.73;;;;;;;;;;5061321;28;20185;-75
2022/08/04 03:42:02;;;;;;;3.77;3.47;;;;;;;;;;5058263;28;20186;-75
2022/08/04 03:44:31;;;;;;;3.30;3.00;;;;;;;;;;5063026;28;20226;-75
2022/08/04 03:47:16;;;;;;;3.70;3.40;;;;;;;;;;5065072;28;20341;-76
2022/08/04 03:50:01;;;;;;;3.97;3.67;;;;;;;;;;5065905;28;20199;-75
2022/08/04 03:53:07;;;;;;;4.40;4.00;;;;;;;;;;5060199;28;20713;-75
2022/08/04 03:55:39;;;;;;;5.63;4.13;;;;;;;;;;5063552;28;20236;-76
2022/08/04 03:58:24;;;;;;;4.57;3.73;;;;;;;;;;5060706;28;20185;-76
2022/08/04 04:01:09;;;;;;;4.43;4.03;;;;;;;;;;5054052;28;20201;-76
2022/08/04 04:03:45;;;;;;;5.07;3.80;;;;;;;;;;5060962;28;20287;-76
2022/08/04 04:06:29;;;;;;;4.70;3.73;;;;;;;;;;5070932;28;20181;-75
2022/08/04 04:09:13;;;;;;;5.20;3.63;;;;;;;;;;5056828;28;20185;-75
2022/08/04 04:11:58;;;;;;;4.17;3.77;;;;;;;;;;5059702;28;20224;-76
2022/08/04 04:14:43;;;;;;;3.43;3.20;;;;;;;;;;5067489;28;20235;-76
2022/08/04 04:17:28;;;;;;;3.77;3.13;;;;;;;;;;5064244;28;20194;-76
2022/08/04 04:20:03;;;;;;;4.13;3.73;;;;;;;;;;5064517;28;20226;-76
2022/08/04 04:22:29;;;;;;;5.27;3.63;;;;;;;;;;5065284;28;20247;-76
2022/08/04 04:24:55;;;;;;;4.10;3.80;;;;;;;;;;5063650;28;20198;-74
2022/08/04 04:27:36;;;;;;;5.20;4.00;;;;;;;;;;5065483;28;20192;-76
2022/08/04 04:30:09;;;;;;;4.30;3.90;;;;;;;;;;5063061;28;20197;-76
2022/08/04 04:32:35;;;;;;;4.37;4.07;;;;;;;;;;5066195;28;20242;-76
2022/08/04 04:35:07;;;;;;;4.63;3.90;;;;;;;;;;5061049;28;20197;-76
2022/08/04 04:37:52;;;;;;;4.70;3.93;;;;;;;;;;5061891;28;20231;-75
2022/08/04 04:40:38;;;;;;;6.57;3.87;;;;;;;;;;5071367;28;20666;-76
2022/08/04 04:43:08;;;;;;;4.70;3.77;;;;;;;;;;5085838;28;20727;-76
2022/08/04 04:45:46;;;;;;;4.30;3.90;;;;;;;;;;5058457;28;20202;-75
2022/08/04 04:48:15;;;;;;;4.53;3.77;;;;;;;;;;5063252;28;20173;-76
2022/08/04 04:51:14;;;;;;;4.47;3.77;;;;;;;;;;5061372;28;20548;-76
2022/08/04 04:53:40;;;;;;;4.00;3.70;;;;;;;;;;5059098;28;20197;-76
2022/08/04 04:56:15;;;;;;;4.73;3.50;;;;;;;;;;5079902;28;20608;-76
2022/08/04 04:58:42;;;;;;;4.30;3.83;;;;;;;;;;5063791;28;20181;-76
2022/08/04 05:01:23;;;;;;;5.07;4.20;;;;;;;;;;5054684;28;20186;-76
2022/08/04 05:03:52;;;;;;;4.20;3.80;;;;;;;;;;5056787;28;20205;-76
2022/08/04 05:06:34;;;;;;;5.70;3.90;;;;;;;;;;5066783;28;20187;-76
2022/08/04 05:09:14;;;;;;;4.03;3.63;;;;;;;;;;5066474;28;20181;-77
2022/08/04 05:11:40;;;;;;;5.50;4.00;;;;;;;;;;5081301;28;20192;-78
2022/08/04 05:14:28;;;;;;;4.73;3.20;;;;;;;;;;5067862;28;20217;-77
2022/08/04 05:17:13;;;;;;;5.00;3.93;;;;;;;;;;5058503;28;20845;-77
2022/08/04 05:19:55;;;;;;;7.30;3.70;;;;;;;;;;5067032;28;20186;-77
2022/08/04 05:22:44;;;;;;;4.00;3.57;;;;;;;;;;5064750;28;20185;-77
2022/08/04 05:25:17;;;;;;;5.63;3.83;;;;;;;;;;5062375;28;20712;-77
2022/08/04 05:27:46;;;;;;;4.13;3.50;;;;;;;;;;5065951;28;20195;-77
2022/08/04 05:30:12;;;;;;;4.17;3.77;;;;;;;;;;5059654;28;20666;-77
2022/08/04 05:32:51;;;;;;;5.67;3.50;;;;;;;;;;5073469;28;20189;-77
2022/08/04 05:35:27;;;;;;;4.37;3.43;;;;;;;;;;5057950;28;20208;-77
2022/08/04 05:37:54;;;;;;;3.57;3.27;;;;;;;;;;5068257;28;20189;-77
2022/08/04 05:40:22;;;;;;;3.37;3.07;;;;;;;;;;5063510;28;20268;-77
2022/08/04 05:42:48;;;;;;;5.73;3.10;;;;;;;;;;5069613;28;20589;-77
2022/08/04 05:45:15;;;;;;;6.20;3.40;;;;;;;;;;5061424;28;20204;-77
2022/08/04 05:47:42;;;;;;;8.37;5.10;;;;;;;;;;5083805;28;20706;-77
2022/08/04 05:50:08;;;;;;;5.07;3.90;;;;;;;;;;5072984;28;20235;-77
2022/08/04 05:52:36;;;;;;;4.00;3.30;;;;;;;;;;5068786;28;20177;-77
2022/08/04 05:55:04;;;;;;;5.67;3.53;;;;;;;;;;5063578;28;20291;-78
2022/08/04 05:57:30;;;;;;;5.43;3.60;;;;;;;;;;5077232;28;20185;-78
2022/08/04 05:59:58;;;;;;;3.97;3.50;;;;;;;;;;5056859;28;20216;-77
2022/08/04 06:02:24;;;;;;;5.97;3.83;;;;;;;;;;5073542;28;20706;-77
2022/08/04 06:04:52;;;;;;;4.80;3.90;;;;;;;;;;5077277;28;20215;-77
2022/08/04 06:07:18;;;;;;;4.80;4.40;;;;;;;;;;5059824;28;20177;-77
2022/08/04 06:09:44;;;;;;;4.90;4.50;;;;;;;;;;5061459;28;20185;-77
2022/08/04 06:12:18;;;;;;;4.77;4.33;;;;;;;;;;5069013;28;20220;-78
2022/08/04 06:14:45;;;;;;;5.70;4.60;;;;;;;;;;5059777;28;20759;-78
2022/08/04 06:17:14;;;;;;;5.03;4.00;;;;;;;;;;5063962;28;20623;-78
2022/08/04 06:19:41;;;;;;;3.97;3.53;;;;;;;;;;5069718;28;20180;-78
2022/08/04 06:22:09;;;;;;;5.03;3.23;;;;;;;;;;5068043;28;20169;-77
2022/08/04 06:24:37;;;;;;;4.50;3.47;;;;;;;;;;5068676;28;20204;-78
2022/08/04 06:27:04;;;;;;;7.10;3.67;;;;;;;;;;5065741;28;20186;-77
2022/08/04 06:29:39;;;;;;;4.07;3.67;;;;;;;;;;5070841;28;20189;-78
2022/08/04 06:32:12;;;;;;;5.13;4.33;;;;;;;;;;5068987;28;20175;-78
2022/08/04 06:34:39;;;;;;;4.83;4.10;;;;;;;;;;5068676;28;20237;-77
2022/08/04 06:37:07;;;;;;;8.87;4.90;;;;;;;;;;5063380;28;20186;-77
2022/08/04 06:39:35;;;;;;;12.50;4.60;;;;;;;;;;5075238;28;20238;-77
2022/08/04 06:42:01;;;;;;;14.27;5.10;;;;;;;;;;5067373;28;20277;-77
2022/08/04 06:44:28;;;;;;;9.57;4.47;;;;;;;;;;5064605;28;20267;-77
2022/08/04 06:46:54;;;;;;;6.60;4.30;;;;;;;;;;5060488;28;20178;-77
2022/08/04 06:49:22;;;;;;;8.20;4.23;;;;;;;;;;5069466;28;20276;-77
2022/08/04 06:51:48;;;;;;;5.00;4.50;;;;;;;;;;5067754;28;20190;-78
2022/08/04 06:54:15;;;;;;;4.87;4.03;;;;;;;;;;5066035;28;20273;-78
2022/08/04 06:56:42;;;;;;;9.20;4.13;;;;;;;;;;5071329;28;20185;-78
2022/08/04 06:59:10;;;;;;;5.03;4.00;;;;;;;;;;5065321;28;20191;-78
2022/08/04 07:01:37;;;;;;;5.93;4.20;;;;;;;;;;5062010;28;20182;-78
2022/08/04 07:04:04;;;;;;;6.77;4.30;;;;;;;;;;5058758;28;20213;-78
2022/08/04 07:06:30;;;;;;;5.10;3.90;;;;;;;;;;5059664;28;20640;-77
2022/08/04 07:08:57;;;;;;;6.43;4.07;;;;;;;;;;5064452;28;20224;-78
2022/08/04 07:11:23;;;;;;;6.73;3.90;;;;;;;;;;5059721;28;20216;-77
2022/08/04 07:13:50;;;;;;;5.50;3.67;;;;;;;;;;5062539;28;20264;-77
2022/08/04 07:16:18;;;;;;;4.70;3.93;;;;;;;;;;5062482;28;20205;-78
2022/08/04 07:18:44;;;;;;;3.87;3.47;;;;;;;;;;5063979;28;20275;-78
2022/08/04 07:21:11;;;;;;;7.17;3.67;;;;;;;;;;5065182;28;20281;-77
2022/08/04 07:23:37;;;;;;;4.23;3.80;;;;;;;;;;5069600;28;20223;-77
2022/08/04 07:26:03;;;;;;;4.10;3.70;;;;;;;;;;5064914;28;20197;-77
2022/08/04 07:28:30;;;;;;;6.87;3.70;;;;;;;;;;5069740;28;20195;-77
2022/08/04 07:30:57;;;;;;;7.87;4.10;;;;;;;;;;5071294;28;20602;-77
2022/08/04 07:33:24;;;;;;;6.90;4.03;;;;;;;;;;5065328;28;20186;-77
2022/08/04 07:35:52;;;;;;;7.03;3.80;;;;;;;;;;5070213;28;20692;-77
2022/08/04 07:38:18;;;;;;;6.20;3.47;;;;;;;;;;5072672;28;20267;-78
2022/08/04 07:40:45;;;;;;;6.63;4.00;;;;;;;;;;5060915;28;20761;-78
2022/08/04 07:43:14;;;;;;;9.33;3.63;;;;;;;;;;5070542;28;20206;-78
2022/08/04 07:45:40;;;;;;;6.73;4.10;;;;;;;;;;5064784;28;20209;-78
2022/08/04 07:48:06;;;;;;;5.00;3.27;;;;;;;;;;5071150;28;20197;-78
2022/08/04 07:50:33;;;;;;;5.07;3.60;;;;;;;;;;5061169;28;20589;-78
2022/08/04 07:53:01;;;;;;;6.87;3.93;;;;;;;;;;5050845;28;20192;-78
2022/08/04 07:55:28;;;;;;;4.20;3.40;;;;;;;;;;5067104;28;20206;-78
2022/08/04 07:57:54;;;;;;;7.17;3.57;;;;;;;;;;5058243;28;20193;-78
2022/08/04 08:00:21;;;;;;;4.43;3.27;;;;;;;;;;5063940;28;20212;-78
2022/08/04 08:02:48;;;;;;;7.03;3.53;;;;;;;;;;5058187;28;20192;-78
2022/08/04 08:05:18;;;;;;;5.13;3.60;;;;;;;;;;5075067;28;20754;-78
2022/08/04 08:07:48;;;;;;;5.20;3.70;;;;;;;;;;5063529;28;20916;-78
2022/08/04 08:10:15;;;;;;;3.53;3.23;;;;;;;;;;5065566;28;20239;-77
2022/08/04 08:12:41;;;;;;;7.07;3.40;;;;;;;;;;5067205;28;20559;-78
2022/08/04 08:15:08;;;;;;;3.90;3.40;;;;;;;;;;5074135;28;20753;-78
2022/08/04 08:17:35;;;;;;;6.03;3.10;;;;;;;;;;5065746;28;20188;-78
2022/08/04 08:20:01;;;;;;;5.50;3.30;;;;;;;;;;5054553;28;20189;-77
2022/08/04 08:22:28;;;;;;;3.87;3.47;;;;;;;;;;5064215;28;20173;-78
2022/08/04 08:24:54;;;;;;;3.70;3.33;;;;;;;;;;5058574;28;20581;-78
2022/08/04 08:27:21;;;;;;;5.03;3.10;;;;;;;;;;5063705;28;20209;-76
2022/08/04 08:29:47;;;;;;;4.77;3.17;;;;;;;;;;5067646;28;20191;-77
2022/08/04 08:32:13;;;;;;;6.03;3.43;;;;;;;;;;5061701;28;20187;-79
2022/08/04 08:34:40;;;;;;;6.90;3.70;;;;;;;;;;5068022;28;20275;-78
2022/08/04 08:37:14;;;;;;;3.90;3.47;;;;;;;;;;5069417;28;20254;-78
2022/08/04 08:39:45;;;;;;;6.57;3.60;;;;;;;;;;5066510;28;20217;-78
2022/08/04 08:42:24;;;;;;;9.00;3.40;;;;;;;;;;5069980;28;20204;-77
2022/08/04 08:45:01;;;;;;;4.67;3.57;;;;;;;;;;5072741;28;20216;-78
2022/08/04 08:47:34;;;;;;;6.97;3.60;;;;;;;;;;5066348;28;20185;-78
2022/08/04 08:50:09;;;;;;;5.47;3.43;;;;;;;;;;5061724;28;20191;-78
2022/08/04 08:52:41;;;;;;;7.60;3.10;;;;;;;;;;5073016;28;20183;-78
2022/08/04 08:55:20;;;;;;;6.60;3.37;;;;;;;;;;5083285;28;20209;-78
2022/08/04 08:57:55;;;;;;;5.37;3.40;;;;;;;;;;5062116;28;20306;-77
2022/08/04 09:00:26;;;;;;;4.83;3.07;;;;;;;;;;5072774;28;20183;-78
2022/08/04 09:02:52;;;;;;;3.30;2.90;;;;;;;;;;5062424;28;20177;-78
2022/08/04 09:05:48;;;;;;;4.77;2.90;;;;;;;;;;5066215;28;20260;-78
2022/08/04 09:08:26;;;;;;;3.40;2.50;;;;;;;;;;5054941;28;20200;-78
2022/08/04 09:10:54;;;;;;;3.17;2.80;;;;;;;;;;5074197;28;20272;-78
2022/08/04 09:13:26;;;;;;;3.87;2.70;;;;;;;;;;5070784;28;20557;-78
2022/08/04 09:16:13;;;;;;;3.23;2.50;;;;;;;;;;5059804;28;20582;-78
2022/08/04 09:18:59;;;;;;;2.83;2.40;;;;;;;;;;5057131;28;20574;-78
2022/08/04 09:21:25;;;;;;;3.00;2.60;;;;;;;;;;5073718;28;20184;-78
2022/08/04 09:24:00;;;;;;;3.73;2.50;;;;;;;;;;5064758;28;20274;-78
2022/08/04 09:26:31;;;;;;;2.90;2.60;;;;;;;;;;5077172;28;20200;-78
2022/08/04 09:29:06;;;;;;;3.50;2.40;;;;;;;;;;5084587;28;20176;-78
2022/08/04 09:31:45;;;;;;;3.60;2.40;;;;;;;;;;5091782;28;20232;-78
2022/08/04 09:34:15;;;;;;;3.57;2.50;;;;;;;;;;5072865;28;20206;-78
2022/08/04 09:36:46;;;;;;;2.80;2.60;;;;;;;;;;5068632;28;20173;-77
2022/08/04 09:39:35;;;;;;;2.80;2.60;;;;;;;;;;5065886;28;20177;-76
2022/08/04 09:42:20;;;;;;;3.50;2.50;;;;;;;;;;5064877;28;20193;-76
2022/08/04 09:44:56;;;;;;;4.10;2.90;;;;;;;;;;5076720;28;20247;-77
2022/08/04 09:47:22;;;;;;;2.87;2.67;;;;;;;;;;5075587;28;20280;-77
2022/08/04 09:49:58;;;;;;;3.10;2.77;;;;;;;;;;5083367;28;20241;-77
2022/08/04 09:52:26;;;;;;;3.03;2.80;;;;;;;;;;5070263;28;20176;-78
2022/08/04 09:55:04;;;;;;;3.97;2.70;;;;;;;;;;5075897;28;20238;-77
2022/08/04 09:57:33;;;;;;;3.17;2.73;;;;;;;;;;5061962;28;20192;-77
2022/08/04 10:00:09;;;;;;;3.20;2.47;;;;;;;;;;5087504;28;20226;-77
2022/08/04 10:03:05;;;;;;;3.07;2.77;;;;;;;;;;5073766;28;20757;-77
2022/08/04 10:05:44;;;;;;;3.40;2.70;;;;;;;;;;5079323;28;20215;-77
2022/08/04 10:08:17;;;;;;;3.90;3.00;;;;;;;;;;5068931;28;20654;-77
2022/08/04 10:10:47;;;;;;;4.13;2.83;;;;;;;;;;5057708;28;20286;-77
2022/08/04 10:13:13;;;;;;;2.93;2.67;;;;;;;;;;5056730;28;20205;-77
2022/08/04 10:15:48;;;;;;;4.33;2.80;;;;;;;;;;5060411;28;20837;-77
2022/08/04 10:18:33;;;;;;;4.50;2.80;;;;;;;;;;5073137;28;20669;-77
2022/08/04 10:21:18;;;;;;;8.83;2.87;;;;;;;;;;5072622;28;20251;-77
2022/08/04 10:23:53;;;;;;;2.57;2.37;;;;;;;;;;5061649;28;20224;-77
2022/08/04 10:26:32;;;;;;;3.00;2.50;;;;;;;;;;5056955;28;20842;-77
2022/08/04 10:29:09;;;;;;;3.83;2.70;;;;;;;;;;5050561;28;20243;-78
2022/08/04 10:31:39;;;;;;;3.40;2.60;;;;;;;;;;5053837;28;20304;-75
2022/08/04 10:34:11;;;;;;;4.37;2.90;;;;;;;;;;5053585;28;20276;-75
2022/08/04 10:36:48;;;;;;;3.93;2.73;;;;;;;;;;5055823;28;20185;-75
2022/08/04 10:39:17;;;;;;;4.80;2.63;;;;;;;;;;5053197;28;20232;-75
2022/08/04 10:42:01;;;;;;;3.50;2.73;;;;;;;;;;5057567;28;20189;-75
2022/08/04 10:44:33;;;;;;;5.47;2.80;;;;;;;;;;5073355;28;20207;-75
2022/08/04 10:47:04;;;;;;;2.83;2.60;;;;;;;;;;5064531;28;20209;-75
2022/08/04 10:49:34;;;;;;;2.77;2.57;;;;;;;;;;5059606;28;20671;-77
2022/08/04 10:52:10;;;;;;;4.20;2.70;;;;;;;;;;5063621;28;20244;-76
2022/08/04 10:54:55;;;;;;;2.70;2.33;;;;;;;;;;5070012;28;20201;-76
2022/08/04 10:57:43;;;;;;;2.80;2.60;;;;;;;;;;5072135;28;20190;-77
2022/08/04 11:00:13;;;;;;;2.90;2.60;;;;;;;;;;5066415;28;20190;-76
2022/08/04 11:02:58;;;;;;;2.63;2.40;;;;;;;;;;5060779;28;20277;-76
2022/08/04 11:05:43;;;;;;;2.80;2.60;;;;;;;;;;5059734;28;20251;-76
2022/08/04 11:08:11;;;;;;;3.03;2.57;;;;;;;;;;5080517;28;20176;-76
2022/08/04 11:10:41;;;;;;;3.87;2.43;;;;;;;;;;5090757;28;20187;-76
2022/08/04 11:13:10;;;;;;;2.87;2.60;;;;;;;;;;5081400;28;20273;-76
2022/08/04 11:15:37;;;;;;;4.33;2.30;;;;;;;;;;5067198;28;20198;-77
2022/08/04 11:18:14;;;;;;;4.80;2.50;;;;;;;;;;5070433;28;20202;-77
2022/08/04 11:20:40;;;;;;;3.20;2.60;;;;;;;;;;5064792;28;20179;-77
2022/08/04 11:23:11;;;;;;;4.07;2.30;;;;;;;;;;5065382;28;20212;-76
2022/08/04 11:25:56;;;;;;;4.10;2.30;;;;;;;;;;5058888;28;20212;-77
2022/08/04 11:28:32;;;;;;;3.23;2.30;;;;;;;;;;5074333;28;20657;-77
2022/08/04 11:31:05;;;;;;;5.53;2.53;;;;;;;;;;5061201;28;20192;-77
2022/08/04 11:33:57;;;;;;;2.63;2.43;;;;;;;;;;5067554;28;20207;-77
2022/08/04 11:36:37;;;;;;;2.33;2.13;;;;;;;;;;5059767;28;20201;-77
2022/08/04 11:39:22;;;;;;;3.23;2.30;;;;;;;;;;5063035;28;20213;-77
2022/08/04 11:41:49;;;;;;;4.60;2.57;;;;;;;;;;5064506;28;20515;-78
2022/08/04 11:44:35;;;;;;;2.53;2.10;;;;;;;;;;5070521;28;20308;-82
2022/08/04 11:47:04;;;;;;;3.83;2.40;;;;;;;;;;5056696;28;20647;-82
2022/08/04 11:49:40;;;;;;;3.87;2.47;;;;;;;;;;5064092;28;20268;-79
2022/08/04 11:52:08;;;;;;;2.80;2.07;;;;;;;;;;5063054;28;20176;-80
2022/08/04 11:54:34;;;;;;;2.67;2.30;;;;;;;;;;5058694;28;20214;-82
2022/08/04 11:57:01;;;;;;;3.17;2.30;;;;;;;;;;5058478;28;20187;-80
2022/08/04 11:59:28;;;;;;;3.20;2.00;;;;;;;;;;5073298;28;20220;-82
2022/08/04 12:02:02;;;;;;;3.17;2.40;;;;;;;;;;5095522;28;20287;-82
2022/08/04 12:04:35;;;;;;;4.57;2.20;;;;;;;;;;5067167;28;20213;-80
2022/08/04 12:07:13;;;;;;;3.60;2.10;;;;;;;;;;5063388;28;20186;-82
2022/08/04 12:09:58;;;;;;;2.50;2.03;;;;;;;;;;5075763;28;20216;-81
2022/08/04 12:12:28;;;;;;;3.57;2.20;;;;;;;;;;5073655;28;20188;-82
2022/08/04 12:14:54;;;;;;;2.50;2.10;;;;;;;;;;5073353;28;20210;-80
2022/08/04 12:17:46;;;;;;;4.60;1.80;;;;;;;;;;5068132;28;20205;-81
2022/08/04 12:20:16;;;;;;;4.03;1.80;;;;;;;;;;5055516;28;21834;-80
2022/08/04 12:22:47;;;;;;;2.23;2.00;;;;;;;;;;5073355;28;20553;-80
2022/08/04 12:25:17;;;;;;;2.00;1.83;;;;;;;;;;5068234;28;20207;-79
2022/08/04 12:27:54;;;;;;;2.03;1.67;;;;;;;;;;5085754;28;20628;-80
2022/08/04 12:30:21;;;;;;;2.50;1.60;;;;;;;;;;5061084;28;20183;-79
2022/08/04 12:32:55;;;;;;;4.10;1.60;;;;;;;;;;5063277;28;20191;-78
2022/08/04 12:35:24;;;;;;;2.67;1.70;;;;;;;;;;5070733;28;20208;-78
2022/08/04 12:38:03;;;;;;;1.83;1.60;;;;;;;;;;5065265;28;20189;-78
2022/08/04 12:40:33;;;;;;;2.63;1.67;;;;;;;;;;5064068;28;20231;-78
2022/08/04 12:43:05;;;;;;;1.70;1.60;;;;;;;;;;5065298;28;20680;-79
2022/08/04 12:45:32;;;;;;;1.77;1.50;;;;;;;;;;5069282;28;20193;-79
2022/08/04 12:47:59;;;;;;;1.98;1.50;;;;;;;;;;5057341;28;20185;-78
2022/08/04 12:50:26;;;;;;;4.55;1.60;;;;;;;;;;5068468;28;20218;-79
2022/08/04 12:52:55;;;;;;;3.15;1.88;;;;;;;;;;5067780;28;20191;-78
2022/08/04 12:55:23;;;;;;;3.22;1.75;;;;;;;;;;5058507;28;20189;-78
2022/08/04 12:57:50;;;;;;;2.72;1.55;;;;;;;;;;5065580;28;20531;-78
2022/08/04 13:00:26;;;;;;;1.73;1.63;;;;;;;;;;5060694;28;20184;-78
2022/08/04 13:02:53;;;;;;;2.63;1.60;;;;;;;;;;5067977;28;20188;-78
2022/08/04 13:05:20;;;;;;;2.65;1.63;;;;;;;;;;5060880;28;20208;-78
2022/08/04 13:07:49;;;;;;;1.75;1.60;;;;;;;;;;5059500;28;20245;-80
2022/08/04 13:10:17;;;;;;;2.88;1.80;;;;;;;;;;5071153;28;20215;-81
2022/08/04 13:12:51;;;;;;;2.10;1.67;;;;;;;;;;5073014;28;20250;-78
2022/08/04 13:15:20;;;;;;;1.80;1.70;;;;;;;;;;5076884;28;20191;-78
2022/08/04 13:17:51;;;;;;;1.88;1.50;;;;;;;;;;5066419;28;20547;-79
2022/08/04 13:20:23;;;;;;;2.22;1.60;;;;;;;;;;5066404;28;20178;-79
2022/08/04 13:22:50;;;;;;;1.88;1.75;;;;;;;;;;5075822;28;20200;-79
2022/08/04 13:25:16;;;;;;;4.70;1.92;;;;;;;;;;5095820;28;20253;-79
2022/08/04 13:27:45;;;;;;;2.30;1.80;;;;;;;;;;5080107;28;20173;-79
2022/08/04 13:30:12;;;;;;;1.88;1.50;;;;;;;;;;5079730;28;20189;-79
2022/08/04 13:32:38;;;;;;;2.97;1.80;;;;;;;;;;5073359;28;20178;-79
2022/08/04 13:35:07;;;;;;;3.13;1.85;;;;;;;;;;5069552;28;20213;-79
2022/08/04 13:37:35;;;;;;;4.85;1.90;;;;;;;;;;5078579;28;20185;-79
2022/08/04 13:40:06;;;;;;;2.65;1.70;;;;;;;;;;5089830;28;20258;-79
2022/08/04 13:42:34;;;;;;;2.53;1.98;;;;;;;;;;5086199;28;20227;-79
2022/08/04 13:45:01;;;;;;;2.00;1.80;;;;;;;;;;5069269;28;20220;-79
2022/08/04 13:47:33;;;;;;;3.03;1.70;;;;;;;;;;5063740;28;20181;-81
2022/08/04 13:50:08;;;;;;;1.58;1.48;;;;;;;;;;5073094;28;20264;-80
2022/08/04 13:52:35;;;;;;;2.28;1.50;;;;;;;;;;5063001;28;20182;-80
2022/08/04 13:55:01;;;;;;;1.92;1.50;;;;;;;;;;5082036;28;20212;-80
2022/08/04 13:57:29;;;;;;;2.38;1.80;;;;;;;;;;5087829;28;20226;-80
2022/08/04 14:00:01;;;;;;;1.95;1.73;;;;;;;;;;5072621;28;20185;-80
2022/08/04 14:02:37;;;;;;;1.90;1.67;;;;;;;;;;5064901;28;20188;-79
2022/08/04 14:05:13;;;;;;;3.20;1.70;;;;;;;;;;5074515;28;20216;-80
2022/08/04 14:08:00;;;;;;;2.70;1.90;;;;;;;;;;5072880;28;20689;-80
2022/08/04 14:10:26;;;;;;;1.70;1.60;;;;;;;;;;5072181;28;20272;-80
2022/08/04 14:12:54;;;;;;;4.00;1.80;;;;;;;;;;5084682;28;20181;-80
2022/08/04 14:15:39;;;;;;;4.03;1.70;;;;;;;;;;5063721;28;20308;-80
2022/08/04 14:18:20;;;;;;;1.85;1.70;;;;;;;;;;5063270;28;20268;-78
2022/08/04 14:21:12;;;;;;;2.00;1.60;;;;;;;;;;5066676;28;20192;-78
2022/08/04 14:23:43;;;;;;;3.80;1.65;;;;;;;;;;5066591;28;20259;-78
2022/08/04 14:26:14;;;;;;;1.90;1.52;;;;;;;;;;5074806;28;20203;-78
2022/08/04 14:28:40;;;;;;;3.10;1.80;;;;;;;;;;5070479;28;20183;-78
2022/08/04 14:31:14;;;;;;;4.00;1.50;;;;;;;;;;5071724;28;20180;-78
2022/08/04 14:33:41;;;;;;;2.65;1.67;;;;;;;;;;5073654;28;20192;-78
2022/08/04 14:36:08;;;;;;;2.97;1.58;;;;;;;;;;5088813;28;20254;-78
2022/08/04 14:38:47;;;;;;;1.92;1.70;;;;;;;;;;5074714;28;20665;-78
2022/08/04 14:41:14;;;;;;;2.28;1.80;;;;;;;;;;5064742;28;20198;-78
2022/08/04 14:44:13;;;;;;;2.78;1.90;;;;;;;;;;5063685;28;20297;-78
2022/08/04 14:46:50;;;;;;;3.05;2.15;;;;;;;;;;5055550;28;20280;-79
2022/08/04 14:49:16;;;;;;;2.80;2.00;;;;;;;;;;5081316;28;20208;-79
2022/08/04 14:51:44;;;;;;;2.13;1.95;;;;;;;;;;5075906;28;20185;-79
2022/08/04 14:54:12;;;;;;;2.95;1.88;;;;;;;;;;5070859;28;20232;-79
2022/08/04 14:56:39;;;;;;;1.98;1.83;;;;;;;;;;5068320;28;20190;-79
2022/08/04 14:59:07;;;;;;;2.20;1.88;;;;;;;;;;5063301;28;20177;-78
2022/08/04 15:01:34;;;;;;;1.70;1.60;;;;;;;;;;5074972;28;20189;-78
2022/08/04 15:04:01;;;;;;;1.90;1.80;;;;;;;;;;5082192;28;20204;-79
2022/08/04 15:06:28;;;;;;;2.78;1.95;;;;;;;;;;5067177;28;20205;-79
2022/08/04 15:08:55;;;;;;;2.33;1.65;;;;;;;;;;5075588;28;20296;-79
2022/08/04 15:11:22;;;;;;;3.30;1.85;;;;;;;;;;5062077;28;20188;-79
2022/08/04 15:13:48;;;;;;;1.90;1.80;;;;;;;;;;5063793;28;20269;-79
2022/08/04 15:16:15;;;;;;;2.95;1.98;;;;;;;;;;5065454;28;20274;-79